Rechercher aéroport 
image banner adimage banner adimage banner ad
image banner ad

5CA3 - San Rafel Private

Situé à San Rafel, United States

ICAO - 5CA3, IATA -

Données fournies par Airmate  

Information générale

Coordonnées: N37°56'50" W122°29'17"
Élévation : 5 feet MSL.
Variation magnétique : 16° East
Voir autres Aéroports à California

Données opérationnelles

Special qualification required
Heure actuelle UTC:
Heure actuelle locale:
Météo à : KDVO - Gnoss Field ( 23 km )
METAR: KDVO 020515Z AUTO 00000KT 10SM CLR 15/11 A3008 RMK AO2
Voir NOTAMs / SUP AIP / TFR affectant cet aéroport [VIEW]
Fréquences de communication: [VIEW]

Pistes:

Coordonnées de l'aéroport

Adresse: San Rafel United States

Vue satellite de 5CA3